Language selection

Weather shortcuts

Northern Grand Banks: Past 24 Hour Conditions

 

Natashquan Airport

08:00 PM EST 04 March 2024
Disclaimer

This table is a summary of hourly weather conditions for the past 24 hours.
Please note that these observations might not always be representative of weather conditions over their associated marine area.

Date / Time
(EST)
Wind(knots) Conditions Visibility(km) Pressure(kPa) Air tempC) Relative humidity(%) Dew pointC) Wind Chill
04 March 2024
20:00 calm Mostly Cloudy 16 103.3 -8 74 -12 *
19:00 SSW 2 Cloudy 16 103.4 -8 68 -12 -10
18:00 N/A N/A N/A 103.4 -7 58 -13 *
17:00 WNW 7 Partly Cloudy 16 103.4 -6 57 -13 -11
16:00 W 16 gusts 22 Sunny 16 103.4 -6 58 -13 -14
15:00 W 13 gusts 20 Sunny 16 103.4 -5 57 -12 -12
14:00 W 14 Mostly Cloudy 16 103.4 -6 50 -14 -13
13:00 WSW 11 Sunny 16 103.4 -6 51 -14 -12
12:00 SW 8 Sunny 16 103.5 -6 40 -17 -11
11:00 N 2 Sunny 16 103.5 -6 33 -20 -8
10:00 N 7 Sunny 16 103.6 -8 37 -20 -14
9:00 N 10 gusts 18 Sunny 16 103.6 -9 40 -20 -17
8:00 N 13 Sunny 16 103.6 -11 44 -20 -19
7:00 N 7 Sunny 16 103.5 -12 51 -20 -19
6:00 NNW 3 Sunny 16 103.5 -13 61 -19 -16
5:00 NNW 10 Clear 16 103.4 -12 51 -20 -20
4:00 N 6 gusts 15 Clear 16 103.4 -11 48 -20 -17
3:00 NNW 5 Clear 16 103.2 -11 54 -18 -16
2:00 N 10 gusts 16 Clear 16 103.1 -9 43 -19 -16
1:00 N 4 Clear 16 103.0 -9 54 -17 -13
0:00 N 7 Clear 16 102.9 -7 49 -16 -13
03 March 2024
23:00 N 13 gusts 21 Clear 16 102.8 -6 42 -17 -13
22:00 N 10 gusts 16 Clear 16 102.7 -5 41 -16 -11
21:00 N 10 Clear 16 102.6 -3 42 -14 -9
20:00 NNE 13 gusts 18 Mostly Cloudy 16 102.5 -1 46 -12 -8

Zoom-in to make a selection

Map of Atlantic - Newfoundland marine weather areas Banquereau - 44139 East Chedabucto Bay – 44488 West Chedabucto Bay – 44489 Blanc-Sablon Airport Cap Whittle Chevery Natashquan Airport Heath Point Îles de la Madeleine Airport Miscou Island Eskasoni (First Nations) Grand Étang Ingonish Beach North Mountain St.Paul Island J.A. Douglas McCurdy Sydney Airport Charlottetown Airport East Point North Cape Argentia Berry Hill Bonavista Burgeo Cape Race Corner Brook Daniel's Harbour Englee Ferolle Point La Scie Port aux Basques Sagona Island St. Anthony Airport St. John's Int'l Airport St. Lawrence Stephenville Airport Twillingate Winterland Branch Hill Wreckhouse Grates Cove Pool's Island Marticot Island Long Pond Cartwright Airport Mary's Harbour
Legend:
buoy Buoy
land station Land Station

Atlantic - Newfoundland Area

Another Region

Date modified: